createdAt,value
2023-05-12T00:01:56.896Z,2.10
2023-05-12T00:05:00.459Z,1.80
2023-05-12T00:08:03.958Z,1.92
2023-05-12T00:11:07.595Z,2.33
2023-05-12T00:14:11.186Z,1.90
2023-05-12T00:17:14.491Z,2.10
2023-05-12T00:20:18.104Z,2.03
2023-05-12T00:23:22.768Z,1.95
2023-05-12T00:26:26.253Z,2.00
2023-05-12T00:29:29.786Z,1.83
2023-05-12T00:32:33.173Z,2.10
2023-05-12T00:35:36.559Z,1.88
2023-05-12T00:38:39.935Z,2.28
2023-05-12T00:41:44.030Z,2.00
2023-05-12T00:44:47.903Z,2.25
2023-05-12T00:47:53.682Z,2.30
2023-05-12T00:50:57.922Z,2.35
2023-05-12T00:54:01.984Z,2.22
2023-05-12T00:57:06.374Z,2.00
2023-05-12T01:00:10.804Z,2.30
2023-05-12T01:03:16.178Z,2.33
2023-05-12T01:06:30.003Z,2.00
2023-05-12T01:09:33.756Z,2.00
2023-05-12T01:12:37.443Z,1.90
2023-05-12T01:15:46.457Z,2.03
2023-05-12T01:18:54.693Z,2.00
2023-05-12T01:21:58.569Z,2.20
2023-05-12T01:25:11.829Z,2.40
2023-05-12T01:28:15.914Z,2.07
2023-05-12T01:31:21.284Z,2.13
2023-05-12T01:34:25.758Z,2.10
2023-05-12T01:37:29.193Z,2.40
2023-05-12T01:40:33.368Z,2.42
2023-05-12T01:43:36.686Z,2.50
2023-05-12T01:46:40.400Z,2.30
2023-05-12T01:49:43.831Z,2.60
2023-05-12T01:52:50.620Z,2.38
2023-05-12T01:55:55.776Z,2.22
2023-05-12T01:58:59.987Z,2.27
2023-05-12T02:02:03.431Z,2.45
2023-05-12T02:05:08.299Z,2.25
2023-05-12T02:08:12.155Z,2.22
2023-05-12T02:11:16.460Z,2.63
2023-05-12T02:14:19.899Z,3.03
2023-05-12T02:17:25.196Z,2.75
2023-05-12T02:20:29.842Z,2.90
2023-05-12T02:23:33.205Z,2.53
2023-05-12T02:26:36.632Z,2.30
2023-05-12T02:29:40.141Z,2.17
2023-05-12T02:32:43.656Z,2.22
2023-05-12T02:35:47.918Z,2.50
2023-05-12T02:38:51.388Z,2.35
2023-05-12T02:41:55.024Z,2.60
2023-05-12T02:44:58.422Z,2.40
2023-05-12T02:48:01.778Z,2.33
2023-05-12T02:51:05.488Z,2.30
2023-05-12T02:54:08.865Z,2.80
2023-05-12T02:57:12.208Z,2.67
2023-05-12T03:00:16.029Z,2.57
2023-05-12T03:03:19.478Z,2.60
2023-05-12T03:06:22.985Z,2.28
2023-05-12T03:09:26.322Z,2.40
2023-05-12T03:12:30.095Z,3.05
2023-05-12T03:15:34.531Z,2.53
2023-05-12T03:18:37.935Z,2.75
2023-05-12T03:21:42.844Z,2.70
2023-05-12T03:24:46.627Z,2.70
2023-05-12T03:27:49.968Z,2.50
2023-05-12T03:30:53.978Z,2.63
2023-05-12T03:33:57.694Z,2.65
2023-05-12T03:37:01.608Z,2.72
2023-05-12T03:40:06.288Z,2.70
2023-05-12T03:43:09.679Z,2.58
2023-05-12T03:46:13.177Z,2.67
2023-05-12T03:49:16.550Z,2.70
2023-05-12T03:52:19.853Z,2.90
2023-05-12T03:55:23.185Z,2.60
2023-05-12T03:58:26.546Z,3.03
2023-05-12T04:01:29.902Z,2.80
2023-05-12T04:04:33.136Z,2.78
2023-05-12T04:07:36.989Z,3.00
2023-05-12T04:10:41.336Z,3.13
2023-05-12T04:13:44.735Z,2.75
2023-05-12T04:16:48.540Z,2.37
2023-05-12T04:19:53.698Z,2.63
2023-05-12T04:22:57.034Z,2.65
2023-05-12T04:26:03.088Z,2.53
2023-05-12T04:29:06.591Z,2.40
2023-05-12T04:32:10.110Z,2.60
2023-05-12T04:35:14.060Z,2.72
2023-05-12T04:38:17.791Z,2.67
2023-05-12T04:41:21.634Z,2.17
2023-05-12T04:44:25.503Z,2.92
2023-05-12T04:47:29.610Z,2.53
2023-05-12T04:50:33.394Z,2.30
2023-05-12T04:53:36.712Z,2.50
2023-05-12T04:56:40.100Z,2.58
2023-05-12T04:59:44.213Z,2.30
2023-05-12T05:02:47.862Z,2.40
2023-05-12T05:05:51.725Z,2.50
2023-05-12T05:08:56.133Z,2.55
2023-05-12T05:11:59.846Z,2.45
2023-05-12T05:15:03.508Z,2.35
2023-05-12T05:18:07.248Z,2.20
2023-05-12T05:21:10.878Z,2.20
2023-05-12T05:24:15.066Z,2.20
2023-05-12T05:27:18.514Z,2.35
2023-05-12T05:30:21.785Z,2.40
2023-05-12T05:33:25.128Z,2.30
2023-05-12T05:36:31.430Z,2.22
2023-05-12T05:39:35.009Z,2.28
2023-05-12T05:42:38.617Z,2.30
2023-05-12T05:45:42.213Z,2.35
2023-05-12T05:48:45.827Z,2.77
2023-05-12T05:51:49.623Z,2.00
2023-05-12T05:54:53.327Z,2.42
2023-05-12T05:57:58.163Z,2.40
2023-05-12T06:01:02.381Z,2.30
2023-05-12T06:04:05.950Z,2.77
2023-05-12T06:07:09.443Z,2.03
2023-05-12T06:10:13.094Z,2.40
2023-05-12T06:13:16.548Z,2.63
2023-05-12T06:16:19.946Z,2.65
2023-05-12T06:19:23.690Z,2.13
2023-05-12T06:22:26.969Z,2.72
2023-05-12T06:25:30.372Z,2.50
2023-05-12T06:28:34.180Z,2.70
2023-05-12T06:31:38.552Z,2.50
2023-05-12T06:34:41.907Z,2.47
2023-05-12T06:37:49.809Z,3.10
2023-05-12T06:40:53.139Z,2.60
2023-05-12T06:43:56.598Z,2.65
2023-05-12T06:47:05.005Z,2.60
2023-05-12T06:50:09.176Z,2.60
2023-05-12T06:53:12.489Z,2.20
2023-05-12T06:56:17.196Z,2.67
2023-05-12T06:59:21.370Z,2.45
2023-05-12T07:02:24.870Z,2.65
2023-05-12T07:05:28.320Z,2.50
2023-05-12T07:08:31.836Z,2.47
2023-05-12T07:11:35.946Z,2.60
2023-05-12T07:14:39.292Z,2.40
2023-05-12T07:17:42.964Z,2.42
2023-05-12T07:20:47.206Z,2.93
2023-05-12T07:23:51.118Z,2.67
2023-05-12T07:26:55.036Z,2.90
2023-05-12T07:29:58.833Z,2.60
2023-05-12T07:33:02.616Z,2.60
2023-05-12T07:36:08.427Z,2.40
2023-05-12T07:39:13.929Z,2.50
2023-05-12T07:42:17.489Z,2.38
2023-05-12T07:45:23.372Z,4.25
2023-05-12T07:48:27.057Z,2.67
2023-05-12T07:51:30.605Z,2.17
2023-05-12T07:54:34.066Z,2.47
2023-05-12T07:57:38.028Z,2.30
2023-05-12T08:00:42.221Z,2.70
2023-05-12T08:03:45.936Z,3.03
2023-05-12T08:06:49.311Z,2.17
2023-05-12T08:09:52.829Z,2.42
2023-05-12T08:12:57.381Z,2.88
2023-05-12T08:16:00.844Z,2.97
2023-05-12T08:19:04.389Z,2.40
2023-05-12T08:22:08.187Z,2.90
2023-05-12T08:25:12.767Z,2.40
2023-05-12T08:28:16.386Z,2.28
2023-05-12T08:31:20.366Z,2.53
2023-05-12T08:34:24.627Z,2.47
2023-05-12T08:37:28.202Z,2.40
2023-05-12T08:40:34.764Z,1.92
2023-05-12T08:43:44.203Z,2.53
2023-05-12T08:46:49.710Z,2.20
2023-05-12T08:50:03.108Z,2.05
2023-05-12T08:53:12.857Z,2.00
2023-05-12T08:59:36.300Z,2.20
2023-05-12T09:02:52.776Z,2.22
2023-05-12T09:05:59.705Z,1.85
2023-05-12T09:09:04.569Z,2.17
2023-05-12T09:12:12.796Z,2.45
2023-05-12T09:15:27.789Z,2.42
2023-05-12T09:18:46.097Z,2.45
2023-05-12T09:21:50.143Z,2.17
2023-05-12T09:24:55.009Z,2.33
2023-05-12T09:27:58.756Z,2.10
2023-05-12T09:31:03.782Z,2.15
2023-05-12T09:34:10.968Z,2.20
2023-05-12T09:37:15.791Z,2.53
2023-05-12T09:40:20.105Z,2.07
2023-05-12T09:43:23.506Z,2.38
2023-05-12T09:46:27.339Z,2.20
2023-05-12T09:49:31.070Z,2.40
2023-05-12T09:52:42.625Z,1.80
2023-05-12T09:55:47.568Z,2.00
2023-05-12T09:58:51.214Z,2.75
2023-05-12T10:01:56.805Z,1.83
2023-05-12T10:05:05.181Z,2.03
2023-05-12T10:08:09.257Z,2.10
2023-05-12T10:11:13.565Z,2.50
2023-05-12T10:14:18.159Z,1.95
2023-05-12T10:17:22.005Z,2.20
2023-05-12T10:20:26.426Z,2.55
2023-05-12T10:23:30.245Z,2.53
2023-05-12T10:26:36.614Z,1.70
2023-05-12T10:29:40.684Z,1.90
2023-05-12T10:32:44.344Z,1.88
2023-05-12T10:35:49.623Z,1.90
2023-05-12T10:38:53.526Z,2.20
2023-05-12T10:42:09.852Z,2.07
2023-05-12T10:45:18.430Z,1.67
2023-05-12T10:48:21.885Z,2.35
2023-05-12T10:51:31.139Z,1.63
2023-05-12T10:54:44.944Z,2.10
2023-05-12T10:57:52.368Z,1.83
2023-05-12T11:01:05.063Z,2.15
2023-05-12T11:04:17.192Z,1.98
2023-05-12T11:07:24.679Z,2.03
2023-05-12T11:10:31.294Z,2.10
2023-05-12T11:13:37.575Z,1.60
2023-05-12T11:16:47.158Z,1.80
2023-05-12T11:19:52.758Z,2.00
2023-05-12T11:22:56.188Z,1.77
2023-05-12T11:25:59.615Z,2.10
2023-05-12T11:29:05.249Z,1.70
2023-05-12T11:32:11.312Z,1.83
2023-05-12T11:35:17.511Z,2.00
2023-05-12T11:38:24.541Z,1.90
2023-05-12T11:41:28.279Z,2.03
2023-05-12T11:44:32.348Z,2.20
2023-05-12T11:47:35.750Z,2.05
2023-05-12T11:50:41.342Z,2.40
2023-05-12T11:53:44.709Z,2.38
2023-05-12T11:56:52.535Z,1.90
2023-05-12T12:00:04.778Z,2.10
2023-05-12T12:03:14.215Z,2.22
2023-05-12T12:06:18.291Z,2.05
2023-05-12T12:09:38.331Z,1.70
2023-05-12T12:12:45.697Z,2.17
2023-05-12T12:15:49.865Z,1.63
2023-05-12T12:18:53.602Z,1.60
2023-05-12T12:21:58.007Z,1.70
2023-05-12T12:25:02.145Z,1.90
2023-05-12T12:28:06.123Z,1.98
2023-05-12T12:31:09.909Z,1.80
2023-05-12T12:34:13.238Z,1.70
2023-05-12T12:37:17.311Z,2.08
2023-05-12T12:40:20.902Z,1.88
2023-05-12T12:43:24.512Z,1.48
2023-05-12T12:46:28.013Z,1.93
2023-05-12T12:49:31.443Z,1.83
2023-05-12T12:52:34.843Z,1.95
2023-05-12T12:55:38.300Z,1.90
2023-05-12T12:58:41.647Z,1.60
2023-05-12T13:01:45.012Z,1.90
2023-05-12T13:04:48.639Z,1.75
2023-05-12T13:07:52.448Z,1.90
2023-05-12T13:10:56.161Z,1.70
2023-05-12T13:13:59.411Z,1.58
2023-05-12T13:17:02.858Z,1.70
2023-05-12T13:20:07.005Z,1.65
2023-05-12T13:23:10.443Z,1.80
2023-05-12T13:26:13.884Z,1.73
2023-05-12T13:29:17.216Z,1.90
2023-05-12T13:32:20.959Z,1.70
2023-05-12T13:35:24.460Z,1.90
2023-05-12T13:38:27.703Z,1.90
2023-05-12T13:41:31.065Z,1.80
2023-05-12T13:44:34.301Z,1.80
2023-05-12T13:47:37.953Z,1.90
2023-05-12T13:50:41.359Z,1.70
2023-05-12T13:53:44.665Z,1.80
2023-05-12T13:56:51.033Z,1.30
2023-05-12T13:59:57.813Z,1.65
2023-05-12T14:03:01.802Z,1.60
2023-05-12T14:06:05.849Z,1.80
2023-05-12T14:09:09.358Z,1.70
2023-05-12T14:12:12.639Z,2.35
2023-05-12T14:15:26.631Z,1.58
2023-05-12T14:18:40.362Z,2.07
2023-05-12T14:21:45.284Z,1.70
2023-05-12T14:24:48.535Z,1.58
2023-05-12T14:27:52.217Z,1.50
2023-05-12T14:30:55.546Z,2.08
2023-05-12T14:33:58.859Z,1.60
2023-05-12T14:37:02.180Z,1.70
2023-05-12T14:40:06.465Z,1.70
2023-05-12T14:43:11.802Z,1.30
2023-05-12T14:46:15.509Z,1.80
2023-05-12T14:49:21.368Z,2.33
2023-05-12T14:52:24.663Z,1.63
2023-05-12T14:55:29.862Z,1.55
2023-05-12T14:58:33.206Z,1.60
2023-05-12T15:01:36.703Z,1.40
2023-05-12T15:04:40.082Z,3.77
2023-05-12T15:07:43.505Z,1.83
2023-05-12T15:10:47.323Z,1.85
2023-05-12T15:13:50.736Z,1.70
2023-05-12T15:16:54.088Z,1.63
2023-05-12T15:19:57.739Z,1.67
2023-05-12T15:23:01.109Z,1.48
2023-05-12T15:26:27.018Z,1.63
2023-05-12T15:29:33.373Z,2.22
2023-05-12T15:32:38.600Z,1.55
2023-05-12T15:35:42.166Z,1.37
2023-05-12T15:38:47.649Z,1.48
2023-05-12T15:41:51.389Z,1.52
2023-05-12T15:44:55.964Z,1.85
2023-05-12T15:47:59.775Z,1.60
2023-05-12T15:51:06.095Z,1.67
2023-05-12T15:54:11.588Z,1.88
2023-05-12T15:57:15.103Z,1.60
2023-05-12T16:00:19.658Z,1.65
2023-05-12T16:03:23.964Z,1.70
2023-05-12T16:06:27.436Z,2.33
2023-05-12T16:09:30.939Z,2.80
2023-05-12T16:12:34.271Z,2.20
2023-05-12T16:15:37.611Z,2.03
2023-05-12T16:18:41.369Z,2.05
2023-05-12T16:21:45.243Z,1.90
2023-05-12T16:24:48.831Z,2.10
2023-05-12T16:27:52.354Z,1.90
2023-05-12T16:30:56.549Z,1.42
2023-05-12T16:33:59.972Z,1.77
2023-05-12T16:37:03.249Z,1.60
2023-05-12T16:40:07.410Z,2.00
2023-05-12T16:43:10.816Z,2.00
2023-05-12T16:46:14.406Z,2.00
2023-05-12T16:49:17.788Z,1.52
2023-05-12T16:52:21.349Z,1.93
2023-05-12T16:55:25.031Z,1.70
2023-05-12T16:58:32.611Z,1.90
2023-05-12T17:01:36.282Z,1.50
2023-05-12T17:04:39.808Z,1.40
2023-05-12T17:07:43.395Z,1.70
2023-05-12T17:10:46.805Z,1.67
2023-05-12T17:13:50.406Z,1.95
2023-05-12T17:16:53.749Z,1.80
2023-05-12T17:19:57.316Z,1.75
2023-05-12T17:23:01.480Z,1.90
2023-05-12T17:26:05.091Z,1.70
2023-05-12T17:29:08.558Z,1.70
2023-05-12T17:32:11.953Z,1.85
2023-05-12T17:35:15.331Z,2.10
2023-05-12T17:38:20.335Z,1.80
2023-05-12T17:41:23.858Z,1.90
2023-05-12T17:44:27.276Z,1.90
2023-05-12T17:47:30.682Z,1.95
2023-05-12T17:50:34.027Z,2.00
2023-05-12T17:53:37.518Z,1.83
2023-05-12T17:56:40.900Z,1.70
2023-05-12T17:59:44.345Z,1.92
2023-05-12T18:02:48.055Z,2.08
2023-05-12T18:05:53.284Z,2.15
2023-05-12T18:08:56.845Z,1.90
2023-05-12T18:12:00.727Z,1.85
2023-05-12T18:15:05.314Z,2.03
2023-05-12T18:18:10.222Z,1.90
2023-05-12T18:21:13.822Z,1.80
2023-05-12T18:24:17.509Z,1.90
2023-05-12T18:27:21.036Z,2.30
2023-05-12T18:30:24.473Z,2.08
2023-05-12T18:33:27.816Z,1.73
2023-05-12T18:36:31.208Z,2.22
2023-05-12T18:39:35.122Z,1.93
2023-05-12T18:42:38.761Z,1.80
2023-05-12T18:45:42.322Z,2.20
2023-05-12T18:48:46.001Z,2.25
2023-05-12T18:51:49.519Z,2.10
2023-05-12T18:54:52.853Z,2.20
2023-05-12T18:57:56.428Z,1.90
2023-05-12T19:00:59.902Z,2.20
2023-05-12T19:04:03.836Z,1.80
2023-05-12T19:07:09.964Z,1.95
2023-05-12T19:10:13.526Z,2.00
2023-05-12T19:13:16.868Z,2.20
2023-05-12T19:16:21.623Z,2.00
2023-05-12T19:19:25.219Z,2.20
2023-05-12T19:22:28.955Z,2.00
2023-05-12T19:25:32.390Z,2.20
2023-05-12T19:28:36.699Z,2.08
2023-05-12T19:31:40.154Z,1.73
2023-05-12T19:34:43.648Z,2.40
2023-05-12T19:37:47.185Z,2.40
2023-05-12T19:40:50.646Z,2.40
2023-05-12T19:43:54.246Z,2.10
2023-05-12T19:47:04.511Z,2.28
2023-05-12T19:50:08.719Z,2.55
2023-05-12T19:53:12.091Z,2.35
2023-05-12T19:56:15.530Z,2.00
2023-05-12T19:59:18.977Z,3.28
2023-05-12T20:02:22.587Z,2.00
2023-05-12T20:05:26.472Z,2.10
2023-05-12T20:08:29.827Z,2.45
2023-05-12T20:11:33.164Z,2.27
2023-05-12T20:14:38.449Z,2.50
2023-05-12T20:17:41.840Z,2.65
2023-05-12T20:20:45.293Z,2.95
2023-05-12T20:23:48.634Z,2.50
2023-05-12T20:26:52.482Z,2.57
2023-05-12T20:29:55.839Z,2.97
2023-05-12T20:32:59.181Z,2.40
2023-05-12T20:36:02.545Z,2.50
2023-05-12T20:39:06.032Z,2.65
2023-05-12T20:42:12.115Z,2.40
2023-05-12T20:45:16.416Z,2.42
2023-05-12T20:48:20.029Z,2.75
2023-05-12T20:51:23.653Z,2.70
2023-05-12T20:54:27.108Z,2.90
2023-05-12T20:57:30.451Z,2.50
2023-05-12T21:00:33.842Z,2.20
2023-05-12T21:03:37.715Z,2.38
2023-05-12T21:06:41.295Z,2.17
2023-05-12T21:09:44.673Z,2.70
2023-05-12T21:12:48.297Z,2.60
2023-05-12T21:15:51.664Z,2.60
2023-05-12T21:18:55.125Z,2.33
2023-05-12T21:21:58.853Z,2.45
2023-05-12T21:25:02.473Z,2.50
2023-05-12T21:28:07.129Z,2.37
2023-05-12T21:31:10.500Z,3.38
2023-05-12T21:34:14.273Z,3.47
2023-05-12T21:37:17.748Z,2.60
2023-05-12T21:40:21.395Z,2.55
2023-05-12T21:43:24.953Z,2.20
2023-05-12T21:46:28.298Z,2.50
2023-05-12T21:49:31.985Z,2.95
2023-05-12T21:52:35.338Z,3.30
2023-05-12T21:55:40.312Z,3.30
2023-05-12T21:58:43.671Z,2.70
2023-05-12T22:01:47.119Z,2.95
2023-05-12T22:04:50.445Z,2.63
2023-05-12T22:07:53.884Z,2.97
2023-05-12T22:10:57.487Z,2.40
2023-05-12T22:14:00.849Z,2.50
2023-05-12T22:17:04.500Z,2.83
2023-05-12T22:20:09.222Z,2.80
2023-05-12T22:23:12.579Z,2.63
2023-05-12T22:26:16.004Z,2.90
2023-05-12T22:29:19.371Z,3.00
2023-05-12T22:32:23.227Z,3.05
2023-05-12T22:35:26.547Z,3.03
2023-05-12T22:38:29.897Z,2.70
2023-05-12T22:41:33.253Z,2.90
2023-05-12T22:44:38.688Z,2.80
2023-05-12T22:47:42.093Z,2.58
2023-05-12T22:50:45.889Z,3.10
2023-05-12T22:53:49.329Z,2.88
2023-05-12T22:56:52.742Z,3.13
2023-05-12T22:59:56.308Z,2.97
2023-05-12T23:03:00.266Z,2.85
2023-05-12T23:06:03.690Z,2.85
2023-05-12T23:09:07.096Z,2.60
2023-05-12T23:12:10.637Z,2.75
2023-05-12T23:15:13.934Z,2.63
2023-05-12T23:18:17.279Z,3.25
2023-05-12T23:21:20.653Z,2.80
2023-05-12T23:24:24.058Z,2.80
2023-05-12T23:27:27.467Z,3.45
2023-05-12T23:30:32.192Z,3.03
2023-05-12T23:33:35.772Z,2.92
2023-05-12T23:36:39.170Z,3.00
2023-05-12T23:39:42.558Z,2.90
2023-05-12T23:42:45.903Z,3.50
2023-05-12T23:45:49.374Z,3.60
2023-05-12T23:48:52.788Z,3.88
2023-05-12T23:51:56.226Z,3.47
2023-05-12T23:54:59.595Z,2.92
2023-05-12T23:58:02.950Z,3.45
